Euskara    
Meteorología y climatología de Navarra
Datos de la estación - Meteo Navarra

Estación de Tafalla GN

Altitud 430 m.


Datos desde el 18/10/2020 hasta el 19/10/2020 en horario solar
Los datos son PROVISIONALES

Anterior Página 1 de 1 Siguiente Descargar: Formato para Excel 2000 o superior   Formato csv   Formato para OpenOffice Calc
Fecha Temperatura Humedad relativa Radiación global Insolación Precipitación Vel. viento 10 m Vel. viento 10 m Dir. viento 10 m
°C % W/m² s l/m² m/s km/h °
18/10/2020 0:00 6.8 78 0.0 0 0.0 4.7 16.7 16
18/10/2020 0:10 7.0 77 0.0 0 0.0 4.4 15.9 13
18/10/2020 0:20 7.2 75 0.0 0 0.0 4.6 16.6 11
18/10/2020 0:30 7.2 75 0.0 0 0.0 4.8 17.4 11
18/10/2020 0:40 7.3 73 0.0 0 0.0 1.8 6.4 318
18/10/2020 0:50 6.8 75 0.0 0 0.0 0.4 1.5 259
18/10/2020 1:00 6.5 77 0.0 0 0.0 0.5 1.6 42
18/10/2020 1:10 6.2 78 0.0 0 0.0 0.4 1.5 19
18/10/2020 1:20 5.9 79 0.0 0 0.0 1.0 3.7 31
18/10/2020 1:30 6.5 76 0.0 0 0.0 1.4 5.0 347
18/10/2020 1:40 6.0 77 0.0 0 0.0 0.6 2.2 32
18/10/2020 1:50 6.1 77 0.0 0 0.0 2.4 8.5 12
18/10/2020 2:00 6.7 77 0.0 0 0.0 2.4 8.5 11
18/10/2020 2:10 6.4 78 0.0 0 0.0 1.9 6.8 17
18/10/2020 2:20 5.5 81 0.0 0 0.0 2.4 8.5 16
18/10/2020 2:30 5.4 81 0.0 0 0.0 3.5 12.5 15
18/10/2020 2:40 5.6 79 0.0 0 0.0 4.0 14.3 18
18/10/2020 2:50 5.7 77 0.0 0 0.0 5.2 18.6 20
18/10/2020 3:00 6.0 76 0.0 0 0.0 5.1 18.3 19
18/10/2020 3:10 5.9 76 0.0 0 0.0 4.7 16.8 20
18/10/2020 3:20 5.5 77 0.0 0 0.0 3.7 13.2 19
18/10/2020 3:30 4.8 81 0.0 0 0.0 3.5 12.5 17
18/10/2020 3:40 4.9 81 0.0 0 0.0 2.8 10.2 18
18/10/2020 3:50 5.6 78 0.0 0 0.0 2.3 8.3 19
18/10/2020 4:00 5.8 75 0.0 0 0.0 2.8 10.0 23
18/10/2020 4:10 5.6 77 0.0 0 0.0 2.3 8.3 21
18/10/2020 4:20 5.5 77 0.0 0 0.0 2.2 7.9 20
18/10/2020 4:30 5.3 78 0.0 0 0.0 1.3 4.8 20
18/10/2020 4:40 5.8 76 0.0 0 0.0 3.9 13.9 24
18/10/2020 4:50 5.5 76 0.0 0 0.0 4.7 16.8 19
18/10/2020 5:00 5.0 80 0.0 0 0.0 3.0 10.7 20
18/10/2020 5:10 5.2 80 0.0 0 0.0 1.2 4.4 36
18/10/2020 5:20 5.0 82 0.0 0 0.0 0.2 0.9 56
18/10/2020 5:30 5.1 81 0.0 0 0.0 0.8 3.0 45
18/10/2020 5:40 4.8 82 0.0 0 0.0 1.8 6.5 22
18/10/2020 5:50 4.5 81 0.0 0 0.0 1.8 6.5 359
18/10/2020 6:00 4.4 81 0.0 0 0.0 1.8 6.3 346
18/10/2020 6:10 4.4 81 0.0 0 0.0 4.0 14.4 23
18/10/2020 6:20 4.6 81 0.0 0 0.0 3.6 13.0 25
18/10/2020 6:30 4.5 82 0.0 0 0.0 2.9 10.4 26
18/10/2020 6:40 4.3 84 19.1 0 0.0 2.9 10.5 26
18/10/2020 6:50 4.9 81 37.9 518 0.0 3.5 12.5 22
18/10/2020 7:00 5.7 77 61.8 600 0.0 2.2 7.9 19
18/10/2020 7:10 6.3 73 85.1 600 0.0 1.1 4.1 17
18/10/2020 7:20 6.5 73 113.9 600 0.0 1.5 5.4 35
18/10/2020 7:30 6.6 74 140.7 600 0.0 3.2 11.6 29
18/10/2020 7:40 6.3 75 121.8 600 0.0 2.2 8.0 34
18/10/2020 7:50 6.8 73 182.5 600 0.0 1.3 4.6 52
18/10/2020 8:00 7.8 69 243.5 600 0.0 0.6 2.3 65
18/10/2020 8:10 8.5 67 285.4 600 0.0 0.5 1.8 164
18/10/2020 8:20 8.5 69 321.4 600 0.0 0.8 2.7 169
18/10/2020 8:30 8.7 68 378.1 600 0.0 0.9 3.2 126
18/10/2020 8:40 9.0 68 392.0 600 0.0 1.1 4.1 118
18/10/2020 8:50 9.3 67 242.5 294 0.0 0.9 3.4 123
18/10/2020 9:00 9.3 68 401.1 600 0.0 1.3 4.7 123
18/10/2020 9:10 9.4 67 339.3 600 0.0 1.6 5.7 122
18/10/2020 9:20 9.5 68 267.3 470 0.0 1.5 5.4 131
18/10/2020 9:30 9.4 69 319.3 490 0.0 1.4 4.9 130
18/10/2020 9:40 9.7 68 458.1 600 0.0 1.3 4.6 127
18/10/2020 9:50 10.1 65 439.9 562 0.0 1.6 5.8 121
18/10/2020 10:00 10.7 62 548.2 600 0.0 1.3 4.6 129
18/10/2020 10:10 11.3 62 552.5 600 0.0 1.0 3.6 118
18/10/2020 10:20 12.0 59 603.4 600 0.0 0.9 3.1 125
18/10/2020 10:30 12.5 58 620.2 600 0.0 1.4 5.2 113
18/10/2020 10:40 12.7 58 578.5 600 0.0 1.7 6.1 120
18/10/2020 10:50 13.2 55 627.4 600 0.0 1.7 6.2 123
18/10/2020 11:00 13.5 52 628.4 600 0.0 1.7 6.2 126
18/10/2020 11:10 13.9 50 632.1 600 0.0 1.4 5.2 137
18/10/2020 11:20 14.4 48 636.6 600 0.0 1.3 4.8 149
18/10/2020 11:30 15.0 47 641.1 600 0.0 0.8 2.7 141
18/10/2020 11:40 15.9 46 643.9 600 0.0 0.7 2.4 132
18/10/2020 11:50 16.0 46 644.0 600 0.0 0.6 2.1 102
18/10/2020 12:00 16.5 44 642.7 600 0.0 0.9 3.1 207
18/10/2020 12:10 16.8 45 620.2 600 0.0 0.4 1.5 358
18/10/2020 12:20 17.3 44 609.8 600 0.0 0.9 3.2 200
18/10/2020 12:30 17.5 43 623.0 600 0.0 1.0 3.4 191
18/10/2020 12:40 17.6 43 640.6 600 0.0 0.5 1.6 151
18/10/2020 12:50 18.1 42 635.0 600 0.0 1.3 4.8 148
18/10/2020 13:00 17.9 42 575.2 600 0.0 1.1 3.9 124
18/10/2020 13:10 18.4 42 602.5 600 0.0 0.6 2.2 179
18/10/2020 13:20 19.0 40 564.2 600 0.0 1.3 4.6 223
18/10/2020 13:30 18.9 40 530.8 600 0.0 1.3 4.5 278
18/10/2020 13:40 18.9 41 482.4 600 0.0 0.7 2.7 118
18/10/2020 13:50 19.9 38 529.9 600 0.0 0.8 2.8 218
18/10/2020 14:00 19.5 38 425.6 600 0.0 1.0 3.5 265
18/10/2020 14:10 19.5 39 398.3 600 0.0 0.8 2.9 163
18/10/2020 14:20 19.6 38 304.4 598 0.0 0.8 3.0 195
18/10/2020 14:30 19.6 37 306.7 600 0.0 0.5 1.8 174
18/10/2020 14:40 19.8 37 285.0 570 0.0 0.7 2.7 175
18/10/2020 14:50 19.5 38 229.5 296 0.0 0.8 3.0 192
18/10/2020 15:00 19.7 37 307.4 600 0.0 0.5 1.9 182
18/10/2020 15:10 19.9 37 295.0 600 0.0 0.8 2.8 193
18/10/2020 15:20 19.7 39 247.0 600 0.0 1.3 4.8 134
18/10/2020 15:30 19.4 39 276.5 600 0.0 1.5 5.3 161
18/10/2020 15:40 19.7 38 252.8 600 0.0 1.2 4.2 161
18/10/2020 15:50 19.8 38 211.7 600 0.0 1.2 4.3 202
18/10/2020 16:00 19.8 38 182.3 600 0.0 1.7 5.9 190
18/10/2020 16:10 19.2 41 105.5 212 0.0 2.0 7.2 164
18/10/2020 16:20 18.6 42 76.8 0 0.0 2.1 7.4 165
18/10/2020 16:30 18.3 44 126.7 590 0.0 1.9 6.9 171
18/10/2020 16:40 18.2 44 98.0 600 0.0 1.8 6.3 174
18/10/2020 16:50 17.9 45 64.5 600 0.0 1.3 4.5 164
18/10/2020 17:00 17.5 45 30.0 250 0.0 1.3 4.8 151
18/10/2020 17:10 17.1 45 5.0 0 0.0 0.8 2.8 134
18/10/2020 17:20 16.1 48 0.0 0 0.0 0.0 0.0 305
18/10/2020 17:30 15.7 49 0.0 0 0.0 0.1 0.4 292
18/10/2020 17:40 15.1 50 0.0 0 0.0 0.4 1.5 23
18/10/2020 17:50 14.4 53 0.0 0 0.0 0.6 2.2 53
18/10/2020 18:00 14.4 52 0.0 0 0.0 0.1 0.3 31
18/10/2020 18:10 13.8 53 0.0 0 0.0 0.1 0.3 15
18/10/2020 18:20 12.9 57 0.0 0 0.0 0.7 2.6 36
18/10/2020 18:30 12.5 59 0.0 0 0.0 1.1 3.9 20
18/10/2020 18:40 12.6 59 0.0 0 0.0 0.3 1.2 14
18/10/2020 18:50 12.5 60 0.0 0 0.0 1.7 6.2 25
18/10/2020 19:00 12.5 61 0.0 0 0.0 1.4 4.9 15
18/10/2020 19:10 12.6 60 0.0 0 0.0 2.2 7.8 24
18/10/2020 19:20 12.4 61 0.0 0 0.0 1.8 6.6 32
18/10/2020 19:30 12.1 62 0.0 0 0.0 2.0 7.2 26
18/10/2020 19:40 11.7 63 0.0 0 0.0 2.2 8.0 31
18/10/2020 19:50 11.4 65 0.0 0 0.0 2.4 8.7 29
18/10/2020 20:00 11.1 66 0.0 0 0.0 2.9 10.3 23
18/10/2020 20:10 11.2 66 0.0 0 0.0 3.5 12.5 16
18/10/2020 20:20 10.9 67 0.0 0 0.0 2.4 8.5 31
18/10/2020 20:30 10.5 68 0.0 0 0.0 2.5 9.0 29
18/10/2020 20:40 10.6 66 0.0 0 0.0 2.9 10.5 27
18/10/2020 20:50 10.7 66 0.0 0 0.0 2.6 9.4 33
18/10/2020 21:00 10.7 65 0.0 0 0.0 2.3 8.1 41
18/10/2020 21:10 10.7 65 0.0 0 0.0 2.2 7.8 42
18/10/2020 21:20 10.6 65 0.0 0 0.0 2.1 7.4 40
18/10/2020 21:30 10.5 65 0.0 0 0.0 2.1 7.6 41
18/10/2020 21:40 10.1 66 0.0 0 0.0 2.1 7.6 42
18/10/2020 21:50 10.3 65 0.0 0 0.0 2.3 8.4 27
18/10/2020 22:00 10.1 65 0.0 0 0.0 1.8 6.3 31
18/10/2020 22:10 9.9 66 0.0 0 0.0 1.6 5.7 40
18/10/2020 22:20 9.8 66 0.0 0 0.0 1.3 4.8 36
18/10/2020 22:30 9.5 67 0.0 0 0.0 1.2 4.4 40
18/10/2020 22:40 9.2 68 0.0 0 0.0 1.2 4.2 49
18/10/2020 22:50 8.8 70 0.0 0 0.0 1.5 5.5 48
18/10/2020 23:00 8.6 71 0.0 0 0.0 1.2 4.2 46
18/10/2020 23:10 8.3 71 0.0 0 0.0 1.2 4.2 37
18/10/2020 23:20 8.1 72 0.0 0 0.0 1.1 4.0 34
18/10/2020 23:30 8.1 72 0.0 0 0.0 1.6 5.6 37
18/10/2020 23:40 7.8 73 0.0 0 0.0 1.4 4.9 37
18/10/2020 23:50 7.9 73 0.0 0 0.0 1.3 4.8 26
Anterior Página 1 de 1 Siguiente

NOTA: Tipo de datos según el color:
   - Valores diarios o 10 minutos correctos
   - Valores diarios calculados a partir de un número de datos 10 minutos menor que 144 y mayor que 120, o de un número de datos semihorarios menor que 48 y mayor que 40 (caso de las estaciones de INTIA Y Ministerio)
   - Valores diez minutos estimados


Contacto        Enlaces        Aviso legal